createdAt,value
2019-02-25T00:04:47.948Z,21.3
2019-02-25T00:09:53.033Z,21.3
2019-02-25T00:14:58.525Z,21.3
2019-02-25T00:20:03.692Z,21.3
2019-02-25T00:25:09.103Z,21.3
2019-02-25T00:30:14.351Z,21.3
2019-02-25T00:35:19.466Z,21.2
2019-02-25T00:40:24.672Z,21.2
2019-02-25T00:45:32.050Z,21.2
2019-02-25T00:50:37.181Z,21.2
2019-02-25T00:55:42.846Z,21.2
2019-02-25T01:00:47.984Z,21.2
2019-02-25T01:05:53.087Z,21.2
2019-02-25T01:10:58.301Z,21.2
2019-02-25T01:16:04.119Z,21.2
2019-02-25T01:21:09.321Z,21.2
2019-02-25T01:26:14.999Z,21.2
2019-02-25T01:31:20.368Z,21.1
2019-02-25T01:36:25.904Z,21.1
2019-02-25T01:41:31.207Z,21.1
2019-02-25T01:46:35.525Z,21.1
2019-02-25T01:51:40.710Z,21.1
2019-02-25T01:56:46.037Z,21.1
2019-02-25T02:01:51.659Z,21.1
2019-02-25T02:12:00.197Z,21.1
2019-02-25T02:17:05.408Z,21
2019-02-25T02:22:10.592Z,21
2019-02-25T02:27:16.119Z,21
2019-02-25T02:32:19.822Z,21
2019-02-25T02:37:23.602Z,21
2019-02-25T02:42:29.144Z,21
2019-02-25T02:47:34.649Z,21
2019-02-25T02:52:39.767Z,21
2019-02-25T02:57:44.929Z,21
2019-02-25T03:02:50.529Z,21
2019-02-25T03:07:55.642Z,20.9
2019-02-25T03:13:01.257Z,20.9
2019-02-25T03:18:04.950Z,20.9
2019-02-25T03:23:10.682Z,20.9
2019-02-25T03:33:19.934Z,20.9
2019-02-25T03:38:25.253Z,20.9
2019-02-25T03:43:30.545Z,20.9
2019-02-25T03:48:34.288Z,20.9
2019-02-25T03:53:39.415Z,20.9
2019-02-25T03:58:44.413Z,20.9
2019-02-25T04:03:49.554Z,20.9
2019-02-25T04:08:54.713Z,20.9
2019-02-25T04:14:00.299Z,20.9
2019-02-25T04:19:05.766Z,20.9
2019-02-25T04:24:10.991Z,20.9
2019-02-25T04:29:16.209Z,20.9
2019-02-25T04:34:21.228Z,20.9
2019-02-25T04:39:26.587Z,20.9
2019-02-25T04:44:31.821Z,21.2
2019-02-25T04:49:35.608Z,21.4
2019-02-25T04:54:40.998Z,21.6
2019-02-25T04:59:46.357Z,21.7
2019-02-25T05:04:51.549Z,21.9
2019-02-25T05:09:56.780Z,21.9
2019-02-25T05:15:02.045Z,22
2019-02-25T05:20:08.468Z,22.1
2019-02-25T05:25:13.678Z,22.1
2019-02-25T05:30:18.785Z,22.2
2019-02-25T05:35:23.771Z,22.3
2019-02-25T05:40:28.932Z,22.4
2019-02-25T05:45:34.484Z,22.6
2019-02-25T05:50:40.008Z,22.6
2019-02-25T05:55:45.056Z,22.7
2019-02-25T06:00:50.256Z,22.8
2019-02-25T06:05:55.615Z,22.8
2019-02-25T06:16:04.747Z,22.6
2019-02-25T06:21:10.070Z,22.6
2019-02-25T06:26:15.691Z,22.5
2019-02-25T06:31:21.060Z,22.5
2019-02-25T06:36:26.238Z,22.5
2019-02-25T06:41:29.924Z,22.5
2019-02-25T06:46:35.124Z,22.5
2019-02-25T06:51:40.504Z,22.5
2019-02-25T06:57:01.636Z,22.5
2019-02-25T07:01:47.296Z,22.6
2019-02-25T07:06:52.327Z,22.6
2019-02-25T07:11:57.465Z,22.5
2019-02-25T07:17:02.533Z,22.5
2019-02-25T07:22:07.950Z,22.6
2019-02-25T07:27:13.029Z,22.4
2019-02-25T07:32:18.692Z,22.9
2019-02-25T07:37:24.302Z,22.8
2019-02-25T07:42:29.642Z,23.3
2019-02-25T07:47:34.743Z,23.7
2019-02-25T07:52:40.090Z,23.9
2019-02-25T07:57:45.423Z,24.1
2019-02-25T08:02:50.939Z,24.2
2019-02-25T08:07:54.647Z,24.4
2019-02-25T08:12:59.963Z,24.4
2019-02-25T08:18:04.040Z,24.6
2019-02-25T08:23:09.416Z,24.7
2019-02-25T08:28:14.492Z,24.6
2019-02-25T08:33:20.019Z,24.6
2019-02-25T08:38:25.500Z,24.4
2019-02-25T08:43:30.987Z,24.3
2019-02-25T08:48:36.435Z,24.6
2019-02-25T08:53:43.954Z,24.9
2019-02-25T09:03:53.914Z,24.7
2019-02-25T09:14:02.027Z,24.6
2019-02-25T09:19:07.573Z,24.5
2019-02-25T09:24:13.202Z,24.4
2019-02-25T09:29:18.326Z,24.3
2019-02-25T09:34:22.024Z,24.4
2019-02-25T09:39:25.851Z,24.4
2019-02-25T09:44:31.273Z,24.3
2019-02-25T09:49:36.212Z,24.2
2019-02-25T09:54:41.698Z,24.2
2019-02-25T09:59:46.777Z,24.5
2019-02-25T10:09:56.342Z,24.7
2019-02-25T10:15:02.206Z,24.8
2019-02-25T10:20:09.825Z,24.8
2019-02-25T10:25:15.180Z,24.6
2019-02-25T10:30:21.009Z,24.4
2019-02-25T10:35:28.279Z,24.6
2019-02-25T10:40:33.352Z,24.5
2019-02-25T10:45:43.314Z,24.8
2019-02-25T10:50:42.683Z,24.8
2019-02-25T10:55:53.008Z,24.8
2019-02-25T11:00:48.403Z,24.8
2019-02-25T11:05:58.571Z,24
2019-02-25T11:10:57.229Z,24
2019-02-25T11:16:02.360Z,18.3
2019-02-25T11:21:11.657Z,20.7
2019-02-25T11:31:29.902Z,22.8
2019-02-25T11:36:26.328Z,22.8
2019-02-25T11:41:38.817Z,23.4
2019-02-25T11:51:40.259Z,23
2019-02-25T11:56:45.514Z,23.1
2019-02-25T12:01:50.805Z,23.3
2019-02-25T12:12:01.503Z,23.6
2019-02-25T12:17:07.209Z,23.6
2019-02-25T12:22:12.892Z,23.6
2019-02-25T12:27:17.954Z,23.7
2019-02-25T12:32:23.225Z,23.7
2019-02-25T12:37:28.962Z,23.7
2019-02-25T12:42:34.063Z,23.6
2019-02-25T12:47:39.681Z,23.6
2019-02-25T12:52:44.851Z,23.6
2019-02-25T13:02:55.865Z,23.5
2019-02-25T13:08:01.194Z,23.4
2019-02-25T13:13:06.616Z,23.4
2019-02-25T13:18:12.427Z,23.4
2019-02-25T13:23:17.794Z,23.3
2019-02-25T13:28:33.533Z,23.3
2019-02-25T13:33:29.282Z,23.3
2019-02-25T13:38:34.791Z,23.3
2019-02-25T13:43:40.001Z,23.3
2019-02-25T13:48:46.485Z,23.2
2019-02-25T13:53:52.227Z,23.2
2019-02-25T13:58:58.639Z,23.2
2019-02-25T14:04:04.973Z,23.2
2019-02-25T14:09:10.298Z,23.1
2019-02-25T14:14:16.689Z,23
2019-02-25T14:19:22.644Z,23
2019-02-25T14:24:28.068Z,23
2019-02-25T14:29:34.971Z,22.8
2019-02-25T14:34:40.799Z,22.8
2019-02-25T14:39:56.311Z,22.7
2019-02-25T14:44:54.394Z,22.7
2019-02-25T14:49:55.466Z,22.7
2019-02-25T14:55:07.054Z,22
2019-02-25T15:00:08.671Z,22.4
2019-02-25T15:05:19.357Z,22.5
2019-02-25T15:10:16.414Z,22.5
2019-02-25T15:15:21.824Z,22.7
2019-02-25T15:25:40.325Z,22.7
2019-02-25T15:30:32.652Z,22.7
2019-02-25T15:35:43.785Z,22.7
2019-02-25T15:40:40.060Z,22.7
2019-02-25T15:45:45.517Z,22.7
2019-02-25T15:50:55.452Z,22.7
2019-02-25T15:55:59.626Z,22.6
2019-02-25T16:00:58.217Z,22.6
2019-02-25T16:06:10.572Z,22.6
2019-02-25T16:11:06.606Z,22.6
2019-02-25T16:16:12.131Z,22.6
2019-02-25T16:21:18.112Z,22.5
2019-02-25T16:26:23.268Z,22.5
2019-02-25T16:31:35.250Z,22.6
2019-02-25T16:36:34.112Z,22.6
2019-02-25T16:41:45.657Z,22.7
2019-02-25T16:46:48.811Z,22.7
2019-02-25T16:51:46.714Z,22.7
2019-02-25T16:56:51.854Z,22.7
2019-02-25T17:02:04.631Z,22.7
2019-02-25T17:07:02.067Z,22.6
2019-02-25T17:12:10.297Z,22.6
2019-02-25T17:17:15.629Z,22.6
2019-02-25T17:22:21.086Z,22.5
2019-02-25T17:27:26.610Z,22.5
2019-02-25T17:32:32.090Z,22.4
2019-02-25T17:37:41.358Z,22.3
2019-02-25T17:42:53.934Z,22.3
2019-02-25T17:48:05.974Z,22.5
2019-02-25T17:52:55.952Z,22.4
2019-02-25T17:58:03.773Z,22.3
2019-02-25T18:08:16.944Z,22.1
2019-02-25T18:13:28.103Z,22.1
2019-02-25T18:18:28.623Z,22
2019-02-25T18:23:38.100Z,22
2019-02-25T18:28:48.402Z,22
2019-02-25T18:33:50.985Z,22
2019-02-25T18:38:52.699Z,21.9
2019-02-25T18:43:53.540Z,22
2019-02-25T18:48:52.391Z,22
2019-02-25T18:54:04.592Z,22
2019-02-25T18:59:17.926Z,22.1
2019-02-25T19:04:04.946Z,22.1
2019-02-25T19:09:12.228Z,22
2019-02-25T19:14:24.104Z,22.1
2019-02-25T19:19:25.380Z,22.1
2019-02-25T19:24:35.854Z,14.5
2019-02-25T19:29:38.545Z,18
2019-02-25T19:34:44.361Z,20.7
2019-02-25T19:39:52.469Z,22.2
2019-02-25T19:45:06.186Z,22.5
2019-02-25T19:50:11.597Z,22.8
2019-02-25T19:55:12.944Z,23
2019-02-25T20:00:10.384Z,23
2019-02-25T20:05:21.718Z,23.3
2019-02-25T20:15:26.949Z,23.1
2019-02-25T20:20:38.851Z,23
2019-02-25T20:25:37.935Z,23
2019-02-25T20:30:51.591Z,22.8
2019-02-25T20:35:58.359Z,22.7
2019-02-25T20:41:02.469Z,22.7
2019-02-25T20:46:09.744Z,22.6
2019-02-25T20:51:15.043Z,22.6
2019-02-25T20:56:22.296Z,22.6
2019-02-25T21:01:22.744Z,22.6
2019-02-25T21:06:26.372Z,22.6
2019-02-25T21:11:30.153Z,22.6
2019-02-25T21:16:36.277Z,22.6
2019-02-25T21:21:41.882Z,22.5
2019-02-25T21:31:56.936Z,22.6
2019-02-25T21:37:00.723Z,22.5
2019-02-25T21:41:57.716Z,22.5
2019-02-25T21:47:07.515Z,22.4
2019-02-25T21:52:17.568Z,22.3
2019-02-25T21:57:15.504Z,22.3
2019-02-25T22:02:20.966Z,22.3
2019-02-25T22:07:33.139Z,22.2
2019-02-25T22:12:35.725Z,22.2
2019-02-25T22:17:33.251Z,22.2
2019-02-25T22:22:39.460Z,22.1
2019-02-25T22:27:46.994Z,22.1
2019-02-25T22:32:52.219Z,22.1
2019-02-25T22:38:03.391Z,22.1
2019-02-25T22:43:01.058Z,22.1
2019-02-25T22:48:06.114Z,22.1
2019-02-25T22:53:13.205Z,22
2019-02-25T22:58:18.885Z,22
2019-02-25T23:03:28.602Z,22
2019-02-25T23:13:37.796Z,21.9
2019-02-25T23:18:44.222Z,21.9
2019-02-25T23:23:58.058Z,21.9
2019-02-25T23:29:00.867Z,21.9
2019-02-25T23:34:13.133Z,22
2019-02-25T23:39:13.028Z,22
2019-02-25T23:44:25.864Z,21.9
2019-02-25T23:49:31.105Z,21.9
2019-02-25T23:54:36.227Z,21.9
2019-02-25T23:59:46.988Z,21.8
